createdAt,value
2023-01-31T00:01:40.897Z,0.75
2023-01-31T00:04:09.272Z,14.25
2023-01-31T00:06:39.551Z,11.50
2023-01-31T00:09:09.496Z,18.25
2023-01-31T00:11:37.538Z,2.25
2023-01-31T00:14:06.932Z,8.75
2023-01-31T00:16:34.150Z,2.00
2023-01-31T00:19:00.873Z,11.00
2023-01-31T00:21:29.439Z,12.25
2023-01-31T00:23:57.468Z,6.75
2023-01-31T00:26:27.307Z,24.00
2023-01-31T00:28:55.765Z,7.00
2023-01-31T00:31:24.345Z,28.50
2023-01-31T00:33:52.897Z,212.25
2023-01-31T00:36:22.646Z,7.00
2023-01-31T00:38:50.095Z,7.75
2023-01-31T00:41:18.328Z,18.25
2023-01-31T00:43:46.548Z,3.00
2023-01-31T00:46:13.467Z,315.50
2023-01-31T00:48:40.375Z,6.25
2023-01-31T00:51:07.530Z,8.75
2023-01-31T00:53:35.053Z,3.75
2023-01-31T00:56:05.034Z,2.00
2023-01-31T00:58:31.859Z,17.75
2023-01-31T01:01:07.746Z,19.00
2023-01-31T01:03:35.409Z,10.50
2023-01-31T01:06:02.259Z,32.50
2023-01-31T01:08:29.965Z,2.75
2023-01-31T01:10:57.234Z,23.00
2023-01-31T01:13:23.965Z,18.25
2023-01-31T01:15:50.625Z,4.75
2023-01-31T01:18:19.040Z,430.50
2023-01-31T01:20:45.748Z,430.67
2023-01-31T01:23:12.443Z,446.50
2023-01-31T01:25:43.793Z,30.33
2023-01-31T01:28:10.607Z,6.75
2023-01-31T01:30:38.199Z,50.33
2023-01-31T01:33:05.079Z,238.40
2023-01-31T01:35:34.048Z,84.60
2023-01-31T01:38:00.919Z,446.75
2023-01-31T01:40:35.515Z,433.75
2023-01-31T01:43:02.195Z,55.67
2023-01-31T01:45:29.418Z,1158.50
2023-01-31T01:48:00.067Z,550.75
2023-01-31T01:50:31.126Z,46.75
2023-01-31T01:53:03.506Z,443.00
2023-01-31T01:55:36.207Z,267.00
2023-01-31T01:58:07.156Z,462.50
2023-01-31T02:00:36.147Z,445.67
2023-01-31T02:03:06.423Z,53.75
2023-01-31T02:05:37.009Z,454.67
2023-01-31T02:08:05.302Z,67.00
2023-01-31T02:10:36.166Z,59.67
2023-01-31T02:13:04.118Z,244.50
2023-01-31T02:15:31.674Z,229.50
2023-01-31T02:17:58.435Z,35.00
2023-01-31T02:20:49.275Z,864.50
2023-01-31T02:23:55.028Z,1834.40
2023-01-31T02:26:49.603Z,1814.60
2023-01-31T02:29:46.421Z,78.67
2023-01-31T02:32:42.184Z,86.00
2023-01-31T02:35:16.608Z,460.00
2023-01-31T02:37:56.164Z,461.00
2023-01-31T02:40:29.684Z,871.80
2023-01-31T02:43:04.944Z,1275.75
2023-01-31T02:45:41.117Z,1565.00
2023-01-31T02:48:19.071Z,94.50
2023-01-31T02:50:55.252Z,491.60
2023-01-31T02:53:28.342Z,1035.00
2023-01-31T02:56:01.507Z,2069.60
2023-01-31T02:58:33.619Z,1019.80
2023-01-31T03:01:03.649Z,1659.80
2023-01-31T03:03:35.213Z,542.20
2023-01-31T03:06:27.812Z,461.60
2023-01-31T03:09:01.964Z,861.40
2023-01-31T03:11:36.449Z,2055.00
2023-01-31T03:14:13.572Z,465.00
2023-01-31T03:16:50.439Z,1247.25
2023-01-31T03:19:23.379Z,1748.25
2023-01-31T03:21:56.672Z,49.00
2023-01-31T03:24:26.800Z,389.20
2023-01-31T03:26:55.953Z,1355.50
2023-01-31T03:29:26.315Z,261.25
2023-01-31T03:31:57.377Z,305.33
2023-01-31T03:34:26.651Z,739.50
2023-01-31T03:36:57.537Z,8.75
2023-01-31T03:39:36.191Z,436.50
2023-01-31T03:42:06.526Z,54.75
2023-01-31T03:44:40.883Z,1325.00
2023-01-31T03:47:15.556Z,30.00
2023-01-31T03:49:46.617Z,621.25
2023-01-31T03:52:18.922Z,669.00
2023-01-31T03:54:51.542Z,422.80
2023-01-31T03:57:23.221Z,817.75
2023-01-31T03:59:55.060Z,230.25
2023-01-31T04:02:25.072Z,68.33
2023-01-31T04:04:58.691Z,46.00
2023-01-31T04:07:25.558Z,689.00
2023-01-31T04:09:52.386Z,1125.00
2023-01-31T04:12:19.233Z,58.25
2023-01-31T04:14:45.956Z,566.00
2023-01-31T04:17:13.338Z,1128.50
2023-01-31T04:19:40.257Z,831.25
2023-01-31T04:22:08.483Z,1523.50
2023-01-31T04:24:35.487Z,629.25
2023-01-31T04:27:02.543Z,744.50
2023-01-31T04:29:29.359Z,930.75
2023-01-31T04:31:56.248Z,290.80
2023-01-31T04:34:23.049Z,1138.50
2023-01-31T04:36:49.776Z,605.80
2023-01-31T04:39:18.087Z,999.00
2023-01-31T04:41:44.855Z,76.40
2023-01-31T04:44:11.593Z,558.00
2023-01-31T04:46:38.624Z,1234.00
2023-01-31T04:49:05.800Z,1561.00
2023-01-31T04:51:32.882Z,1637.20
2023-01-31T04:54:00.188Z,782.20
2023-01-31T04:56:28.479Z,1162.60
2023-01-31T04:58:55.411Z,2238.00
2023-01-31T05:01:22.272Z,1633.80
2023-01-31T05:03:49.479Z,1821.00
2023-01-31T05:06:16.224Z,1945.40
2023-01-31T05:08:42.986Z,1858.40
2023-01-31T05:11:09.997Z,983.20
2023-01-31T05:13:38.423Z,167.00
2023-01-31T05:16:07.735Z,817.67
2023-01-31T05:18:35.189Z,432.50
2023-01-31T05:21:02.727Z,1827.75
2023-01-31T05:23:30.368Z,806.67
2023-01-31T05:25:57.810Z,1138.60
2023-01-31T05:28:24.888Z,758.80
2023-01-31T05:30:53.244Z,1617.00
2023-01-31T05:33:20.961Z,1692.60
2023-01-31T05:35:48.202Z,1607.00
2023-01-31T05:38:15.453Z,1972.25
2023-01-31T05:40:42.551Z,485.80
2023-01-31T05:43:09.419Z,913.80
2023-01-31T05:45:36.281Z,819.80
2023-01-31T05:48:05.284Z,1012.75
2023-01-31T05:50:32.268Z,1700.00
2023-01-31T05:53:00.919Z,2361.50
2023-01-31T05:55:27.981Z,1505.40
2023-01-31T05:57:55.423Z,831.75
2023-01-31T06:00:23.058Z,830.00
2023-01-31T06:02:50.793Z,1347.60
2023-01-31T06:05:19.560Z,1425.20
2023-01-31T06:07:46.622Z,1573.00
2023-01-31T06:10:13.941Z,314.20
2023-01-31T06:12:41.087Z,821.75
2023-01-31T06:15:08.583Z,684.80
2023-01-31T06:17:35.797Z,1133.20
2023-01-31T06:20:03.747Z,2282.80
2023-01-31T06:22:31.849Z,1596.25
2023-01-31T06:24:58.639Z,1584.40
2023-01-31T06:27:25.601Z,1669.00
2023-01-31T06:29:52.252Z,1292.60
2023-01-31T06:32:19.026Z,1519.40
2023-01-31T06:34:46.016Z,289.80
2023-01-31T06:37:12.936Z,1051.20
2023-01-31T06:39:41.478Z,1971.75
2023-01-31T06:42:08.309Z,1137.20
2023-01-31T06:44:35.457Z,1595.25
2023-01-31T06:47:02.513Z,1790.25
2023-01-31T06:49:29.446Z,1577.20
2023-01-31T06:51:56.737Z,833.40
2023-01-31T06:54:23.665Z,1001.20
2023-01-31T06:56:51.789Z,1585.60
2023-01-31T06:59:18.661Z,1375.20
2023-01-31T07:01:45.650Z,1298.40
2023-01-31T07:04:12.447Z,1892.80
2023-01-31T07:06:39.459Z,2348.00
2023-01-31T07:09:06.467Z,1439.80
2023-01-31T07:11:33.195Z,1130.00
2023-01-31T07:14:01.503Z,857.00
2023-01-31T07:16:28.514Z,427.20
2023-01-31T07:18:56.441Z,45.00
2023-01-31T07:21:24.325Z,20.75
2023-01-31T07:23:51.339Z,5.00
2023-01-31T07:26:18.325Z,9.75
2023-01-31T07:28:45.200Z,326.00
2023-01-31T07:31:14.822Z,19.25
2023-01-31T07:33:41.911Z,21.25
2023-01-31T07:36:13.045Z,31.00
2023-01-31T07:38:40.346Z,25.50
2023-01-31T07:41:07.868Z,821.75
2023-01-31T07:43:34.890Z,16.50
2023-01-31T07:46:02.318Z,20.50
2023-01-31T07:48:30.406Z,23.25
2023-01-31T07:51:00.228Z,418.75
2023-01-31T07:53:28.199Z,48.25
2023-01-31T07:55:55.203Z,586.33
2023-01-31T07:58:21.962Z,29.50
2023-01-31T08:00:48.664Z,20.75
2023-01-31T08:03:24.985Z,427.33
2023-01-31T08:05:53.105Z,458.60
2023-01-31T08:08:19.864Z,350.00
2023-01-31T08:10:47.223Z,1329.80
2023-01-31T08:13:14.052Z,1347.00
2023-01-31T08:15:40.690Z,23.75
2023-01-31T08:18:07.394Z,1056.50
2023-01-31T08:20:34.198Z,1512.00
2023-01-31T08:23:02.376Z,2829.50
2023-01-31T08:25:29.478Z,3925.60
2023-01-31T08:27:57.590Z,3198.25
2023-01-31T08:30:24.536Z,3983.00
2023-01-31T08:32:51.246Z,2708.75
2023-01-31T08:35:18.304Z,3726.80
2023-01-31T08:37:45.208Z,2345.40
2023-01-31T08:40:14.266Z,3185.00
2023-01-31T08:42:41.122Z,3119.60
2023-01-31T08:45:08.703Z,3890.00
2023-01-31T08:47:35.449Z,3209.40
2023-01-31T08:50:02.353Z,1650.75
2023-01-31T08:52:29.021Z,2239.80
2023-01-31T08:54:55.857Z,1422.25
2023-01-31T08:57:24.156Z,391.00
2023-01-31T08:59:50.977Z,2484.40
2023-01-31T09:02:17.859Z,1912.00
2023-01-31T09:04:45.770Z,694.00
2023-01-31T09:07:12.527Z,989.60
2023-01-31T09:09:39.582Z,760.00
2023-01-31T09:12:06.899Z,63.00
2023-01-31T09:14:35.051Z,390.80
2023-01-31T09:17:02.046Z,645.25
2023-01-31T09:19:29.941Z,568.67
2023-01-31T09:21:56.865Z,419.67
2023-01-31T09:24:23.746Z,405.00
2023-01-31T09:26:50.533Z,26.00
2023-01-31T09:29:17.320Z,408.50
2023-01-31T09:31:45.588Z,520.25
2023-01-31T09:34:12.476Z,38.50
2023-01-31T09:36:39.273Z,51.67
2023-01-31T09:39:06.112Z,27.75
2023-01-31T09:41:37.339Z,9.25
2023-01-31T09:44:10.965Z,560.67
2023-01-31T09:46:42.879Z,307.67
2023-01-31T09:49:21.099Z,170.00
2023-01-31T09:51:53.296Z,51.67
2023-01-31T09:54:27.064Z,39.00
2023-01-31T09:57:04.780Z,306.25
2023-01-31T09:59:42.413Z,53.33
2023-01-31T10:02:30.681Z,409.50
2023-01-31T10:05:12.273Z,39.75
2023-01-31T10:07:46.374Z,298.00
2023-01-31T10:10:27.383Z,73.67
2023-01-31T10:12:56.473Z,347.75
2023-01-31T10:15:36.830Z,53.50
2023-01-31T10:18:10.782Z,424.33
2023-01-31T10:20:47.471Z,36.33
2023-01-31T10:23:21.513Z,168.75
2023-01-31T10:25:53.113Z,358.50
2023-01-31T10:28:24.089Z,454.75
2023-01-31T10:30:57.478Z,54.67
2023-01-31T10:33:34.496Z,32.33
2023-01-31T10:36:10.025Z,723.00
2023-01-31T10:38:44.199Z,170.00
2023-01-31T10:41:15.646Z,20.75
2023-01-31T10:43:51.474Z,429.75
2023-01-31T10:46:18.557Z,117.50
2023-01-31T10:48:48.341Z,588.33
2023-01-31T10:51:30.629Z,413.50
2023-01-31T10:54:14.067Z,440.00
2023-01-31T10:56:44.419Z,17.00
2023-01-31T10:59:22.231Z,403.50
2023-01-31T11:01:49.621Z,50.25
2023-01-31T11:04:30.234Z,15.75
2023-01-31T11:09:30.384Z,45.25
2023-01-31T11:11:58.827Z,19.75
2023-01-31T11:14:25.741Z,6.00
2023-01-31T11:16:59.788Z,184.00
2023-01-31T11:19:34.229Z,3.75
2023-01-31T11:22:03.528Z,24.00
2023-01-31T11:24:33.650Z,29.50
2023-01-31T11:27:03.879Z,7.25
2023-01-31T11:29:34.166Z,120.50
2023-01-31T11:32:04.787Z,9.25
2023-01-31T11:34:32.327Z,4.75
2023-01-31T11:37:15.685Z,398.00
2023-01-31T11:39:42.460Z,42.50
2023-01-31T11:42:14.027Z,23.00
2023-01-31T11:44:55.354Z,5.25
2023-01-31T11:47:33.061Z,44.75
2023-01-31T11:50:01.119Z,22.50
2023-01-31T11:52:32.460Z,17.50
2023-01-31T11:55:02.307Z,36.25
2023-01-31T11:57:32.388Z,51.25
2023-01-31T12:00:02.706Z,9.00
2023-01-31T12:02:36.842Z,13.25
2023-01-31T12:05:11.138Z,19.25
2023-01-31T12:07:45.795Z,40.75
2023-01-31T12:10:33.459Z,24.75
2023-01-31T12:13:16.672Z,23.75
2023-01-31T12:15:51.310Z,33.50
2023-01-31T12:18:38.802Z,21.75
2023-01-31T12:21:14.276Z,9.00
2023-01-31T12:23:52.911Z,17.25
2023-01-31T12:26:31.025Z,970.00
2023-01-31T12:29:14.134Z,22.50
2023-01-31T12:31:55.704Z,9.25
2023-01-31T12:34:57.943Z,6.00
2023-01-31T12:37:41.431Z,397.00
2023-01-31T12:40:34.679Z,13.25
2023-01-31T12:43:03.967Z,34.25
2023-01-31T12:45:49.727Z,24.25
2023-01-31T12:48:29.372Z,982.25
2023-01-31T12:51:05.731Z,48.67
2023-01-31T12:53:51.640Z,193.50
2023-01-31T12:56:46.000Z,766.40
2023-01-31T12:59:35.320Z,227.50
2023-01-31T13:02:16.052Z,670.67
2023-01-31T13:04:49.156Z,1989.50
2023-01-31T13:07:25.825Z,64.00
2023-01-31T13:09:57.871Z,943.67
2023-01-31T13:12:30.800Z,407.00
2023-01-31T13:15:03.861Z,811.00
2023-01-31T13:17:33.704Z,40.67
2023-01-31T13:20:21.511Z,50.00
2023-01-31T13:22:53.330Z,1493.00
2023-01-31T13:25:24.687Z,822.00
2023-01-31T13:27:59.824Z,417.67
2023-01-31T13:30:36.366Z,423.25
2023-01-31T13:33:17.366Z,524.25
2023-01-31T13:35:48.748Z,132.00
2023-01-31T13:38:20.809Z,619.20
2023-01-31T13:40:52.531Z,1241.60
2023-01-31T13:43:21.199Z,50.33
2023-01-31T13:45:53.728Z,22.25
2023-01-31T13:48:28.348Z,407.50
2023-01-31T13:51:01.640Z,804.00
2023-01-31T13:53:34.588Z,414.25
2023-01-31T13:56:04.411Z,12.00
2023-01-31T13:58:35.581Z,203.00
2023-01-31T14:01:06.532Z,34.75
2023-01-31T14:04:09.764Z,10.75
2023-01-31T14:07:14.979Z,14.00
2023-01-31T14:09:46.095Z,7.50
2023-01-31T14:12:36.209Z,1053.00
2023-01-31T14:15:47.254Z,4.75
2023-01-31T14:18:39.701Z,38.50
2023-01-31T14:21:55.020Z,16.00
2023-01-31T14:25:03.190Z,27.75
2023-01-31T14:27:33.795Z,9.25
2023-01-31T14:30:21.239Z,425.75
2023-01-31T14:32:51.011Z,403.67
2023-01-31T14:35:36.341Z,201.50
2023-01-31T14:38:12.262Z,397.00
2023-01-31T14:40:53.782Z,19.50
2023-01-31T14:43:35.970Z,306.75
2023-01-31T14:46:42.713Z,211.50
2023-01-31T14:49:46.992Z,402.67
2023-01-31T14:52:43.319Z,46.25
2023-01-31T14:55:33.676Z,27.25
2023-01-31T14:58:03.844Z,429.67
2023-01-31T15:00:33.215Z,41.25
2023-01-31T15:03:04.665Z,430.33
2023-01-31T15:05:48.287Z,403.50
2023-01-31T15:08:38.880Z,396.50
2023-01-31T15:11:07.440Z,39.00
2023-01-31T15:13:44.401Z,18.00
2023-01-31T15:16:18.991Z,428.00
2023-01-31T15:18:48.902Z,8.25
2023-01-31T15:21:25.401Z,396.75
2023-01-31T15:23:54.293Z,8.50
2023-01-31T15:26:24.193Z,17.25
2023-01-31T15:28:52.767Z,14.25
2023-01-31T15:31:27.325Z,11.75
2023-01-31T15:33:59.915Z,9.50
2023-01-31T15:36:33.798Z,537.00
2023-01-31T15:39:16.165Z,4.25
2023-01-31T15:41:44.972Z,18.00
2023-01-31T15:44:16.521Z,405.67
2023-01-31T15:46:44.200Z,438.75
2023-01-31T15:49:38.417Z,289.33
2023-01-31T15:52:13.601Z,36.50
2023-01-31T15:54:51.780Z,29.25
2023-01-31T15:57:19.403Z,424.33
2023-01-31T15:59:48.320Z,8.25
2023-01-31T16:02:22.568Z,398.75
2023-01-31T16:04:49.509Z,35.25
2023-01-31T16:07:20.396Z,45.00
2023-01-31T16:09:48.423Z,150.67
2023-01-31T16:12:16.540Z,8.67
2023-01-31T16:14:47.547Z,56.00
2023-01-31T16:17:15.101Z,28.00
2023-01-31T16:19:42.550Z,34.00
2023-01-31T16:22:26.291Z,439.67
2023-01-31T16:24:55.355Z,1216.00
2023-01-31T16:27:23.612Z,34.67
2023-01-31T16:29:53.090Z,15.25
2023-01-31T16:32:22.507Z,20.75
2023-01-31T16:34:54.980Z,14.50
2023-01-31T16:37:32.806Z,10.50
2023-01-31T16:40:05.555Z,225.00
2023-01-31T16:42:32.788Z,7.00
2023-01-31T16:45:00.046Z,18.75
2023-01-31T16:47:46.299Z,10.75
2023-01-31T16:50:42.814Z,7.25
2023-01-31T16:53:29.138Z,29.25
2023-01-31T16:56:20.168Z,23.00
2023-01-31T16:58:53.438Z,432.33
2023-01-31T17:01:23.628Z,13.25
2023-01-31T17:04:06.904Z,9.00
2023-01-31T17:06:34.766Z,8.50
2023-01-31T17:09:05.398Z,22.50
2023-01-31T17:11:43.165Z,22.00
2023-01-31T17:14:10.360Z,16.75
2023-01-31T17:16:37.163Z,5.00
2023-01-31T17:19:03.919Z,18.50
2023-01-31T17:21:34.648Z,4.50
2023-01-31T17:24:02.969Z,17.00
2023-01-31T17:26:31.479Z,5.50
2023-01-31T17:29:01.828Z,20.50
2023-01-31T17:31:29.274Z,415.25
2023-01-31T17:33:56.168Z,21.25
2023-01-31T17:36:23.242Z,18.50
2023-01-31T17:38:51.892Z,21.75
2023-01-31T17:41:22.290Z,41.00
2023-01-31T17:43:49.023Z,27.75
2023-01-31T17:46:18.074Z,45.50
2023-01-31T17:48:47.189Z,47.25
2023-01-31T17:51:14.090Z,33.50
2023-01-31T17:53:49.393Z,22.50
2023-01-31T17:56:17.408Z,42.00
2023-01-31T17:58:46.035Z,57.00
2023-01-31T18:01:13.205Z,444.67
2023-01-31T18:03:40.122Z,437.00
2023-01-31T18:06:09.171Z,16.00
2023-01-31T18:08:36.168Z,44.50
2023-01-31T18:11:04.747Z,25.00
2023-01-31T18:13:31.939Z,428.00
2023-01-31T18:16:17.436Z,14.25
2023-01-31T18:18:44.583Z,10.00
2023-01-31T18:21:12.977Z,419.75
2023-01-31T18:23:39.808Z,9.00
2023-01-31T18:26:07.787Z,56.33
2023-01-31T18:28:35.104Z,130.50
2023-01-31T18:31:03.030Z,7.75
2023-01-31T18:33:32.176Z,12.50
2023-01-31T18:36:00.421Z,25.00
2023-01-31T18:38:28.465Z,13.67
2023-01-31T18:40:55.813Z,17.00
2023-01-31T18:43:23.457Z,8.25
2023-01-31T18:45:50.388Z,323.75
2023-01-31T18:48:17.558Z,20.50
2023-01-31T18:50:45.894Z,8.00
2023-01-31T18:53:12.556Z,7.50
2023-01-31T18:55:39.318Z,4.00
2023-01-31T18:58:06.143Z,14.00
2023-01-31T19:00:32.940Z,7.00
2023-01-31T19:02:59.966Z,17.75
2023-01-31T19:05:26.875Z,421.00
2023-01-31T19:07:55.228Z,30.00
2023-01-31T19:10:22.111Z,22.75
2023-01-31T19:12:48.920Z,19.25
2023-01-31T19:15:15.760Z,12.00
2023-01-31T19:17:42.585Z,17.00
2023-01-31T19:20:10.973Z,14.67
2023-01-31T19:22:37.689Z,28.25
2023-01-31T19:25:07.442Z,6.75
2023-01-31T19:27:34.122Z,26.50
2023-01-31T19:30:00.801Z,57.67
2023-01-31T19:32:27.546Z,41.67
2023-01-31T19:34:54.509Z,27.50
2023-01-31T19:37:21.383Z,42.67
2023-01-31T19:39:48.221Z,38.50
2023-01-31T19:42:16.349Z,51.00
2023-01-31T19:44:43.400Z,49.75
2023-01-31T19:47:10.172Z,448.50
2023-01-31T19:49:36.834Z,64.33
2023-01-31T19:52:03.782Z,61.50
2023-01-31T19:54:30.733Z,56.75
2023-01-31T19:56:57.479Z,60.75
2023-01-31T19:59:26.010Z,62.00
2023-01-31T20:01:53.060Z,68.33
2023-01-31T20:04:19.766Z,70.33
2023-01-31T20:06:46.754Z,67.00
2023-01-31T20:09:13.652Z,71.00
2023-01-31T20:11:40.388Z,63.33
2023-01-31T20:14:07.186Z,51.67
2023-01-31T20:16:35.659Z,69.33
2023-01-31T20:19:02.439Z,62.33
2023-01-31T20:21:29.268Z,63.67
2023-01-31T20:23:56.101Z,58.67
2023-01-31T20:26:22.884Z,62.67
2023-01-31T20:28:50.034Z,61.00
2023-01-31T20:31:17.587Z,57.00
2023-01-31T20:33:46.207Z,60.33
2023-01-31T20:36:14.351Z,36.50
2023-01-31T20:38:41.271Z,48.33
2023-01-31T20:41:08.825Z,57.00
2023-01-31T20:43:36.678Z,57.00
2023-01-31T20:46:04.877Z,56.75
2023-01-31T20:48:31.817Z,55.25
2023-01-31T20:51:00.125Z,52.25
2023-01-31T20:53:27.675Z,27.75
2023-01-31T20:55:56.460Z,21.25
2023-01-31T20:58:23.820Z,15.50
2023-01-31T21:00:52.499Z,1.25
2023-01-31T21:03:19.644Z,12.50
2023-01-31T21:05:46.387Z,8.75
2023-01-31T21:08:14.784Z,31.00
2023-01-31T21:10:41.679Z,17.00
2023-01-31T21:13:08.620Z,7.25
2023-01-31T21:15:35.382Z,32.00
2023-01-31T21:18:02.108Z,29.00
2023-01-31T21:20:28.882Z,18.75
2023-01-31T21:22:55.591Z,449.33
2023-01-31T21:25:23.891Z,33.00
2023-01-31T21:27:50.675Z,35.67
2023-01-31T21:30:19.099Z,15.25
2023-01-31T21:32:46.046Z,302.67
2023-01-31T21:35:12.916Z,17.75
2023-01-31T21:37:39.776Z,30.67
2023-01-31T21:40:07.986Z,19.25
2023-01-31T21:42:36.255Z,434.00
2023-01-31T21:45:02.980Z,437.33
2023-01-31T21:47:29.782Z,14.00
2023-01-31T21:49:56.516Z,32.50
2023-01-31T21:52:23.483Z,38.25
2023-01-31T21:54:50.432Z,49.67
2023-01-31T21:57:17.274Z,53.33
2023-01-31T21:59:45.630Z,313.00
2023-01-31T22:02:12.878Z,68.00
2023-01-31T22:04:39.836Z,41.25
2023-01-31T22:07:09.228Z,867.00
2023-01-31T22:09:36.159Z,32.00
2023-01-31T22:12:02.872Z,38.25
2023-01-31T22:14:29.565Z,35.33
2023-01-31T22:16:57.656Z,18.75
2023-01-31T22:19:24.464Z,34.25
2023-01-31T22:21:51.187Z,24.75
2023-01-31T22:24:19.026Z,26.00
2023-01-31T22:26:45.728Z,40.00
2023-01-31T22:29:14.558Z,47.67
2023-01-31T22:31:42.032Z,47.50
2023-01-31T22:34:12.775Z,865.25
2023-01-31T22:36:40.403Z,22.50
2023-01-31T22:39:07.701Z,23.75
2023-01-31T22:41:34.396Z,13.75
2023-01-31T22:44:01.312Z,45.33
2023-01-31T22:46:29.119Z,533.25
2023-01-31T22:48:56.360Z,424.00
2023-01-31T22:51:27.106Z,20.25
2023-01-31T22:53:54.877Z,624.25
2023-01-31T22:56:23.610Z,28.33
2023-01-31T22:58:55.164Z,841.00
2023-01-31T23:01:24.369Z,432.67
2023-01-31T23:03:51.472Z,37.67
2023-01-31T23:06:18.332Z,42.00
2023-01-31T23:08:46.746Z,358.50
2023-01-31T23:11:15.270Z,578.33
2023-01-31T23:13:43.208Z,837.67
2023-01-31T23:16:15.738Z,69.00
2023-01-31T23:18:42.462Z,54.33
2023-01-31T23:21:11.045Z,67.00
2023-01-31T23:23:37.831Z,56.00
2023-01-31T23:26:06.927Z,41.33
2023-01-31T23:28:33.974Z,65.33
2023-01-31T23:31:01.380Z,296.33
2023-01-31T23:33:28.747Z,81.00
2023-01-31T23:35:55.542Z,72.25
2023-01-31T23:38:22.461Z,80.25
2023-01-31T23:40:52.653Z,875.67
2023-01-31T23:43:21.893Z,20.25
2023-01-31T23:45:48.960Z,54.33
2023-01-31T23:48:16.207Z,1328.25
2023-01-31T23:50:43.487Z,419.33
2023-01-31T23:53:10.667Z,51.67
2023-01-31T23:55:37.439Z,1640.00
2023-01-31T23:58:04.303Z,471.25
